Containerships 6 — DABH — position and weather

sailwx.info

Track history (hours):
 
Tides and Currents Weather Stations Pressure Air Temp Water Temp Dewpoint Dewpoint Depression Visibility Wind Speed Wind Dir Waves Ship Positions

Containerships 6

Last reported at 2014-Jul-26 04:33 UTC. Time now 2014-Jul-26 05:09 UTC.
Position N 55°03' E 000°04'.

Length 155 m; beam 21.8 m; draft 8.9 m.

Type: Ship (hazmat cat A). MMSI: 211315096.

Date/timePositionNaut miles runAvg speedWind from/ knotsBaromVisibWave heightAir tempDewpointWater temp
2014-Jul-26 04:33N 55°03' E 000°04'1818.5
2014-Jul-26 03:33N 55°12' E 000°32'1818.2
2014-Jul-26 02:33N 55°19' E 001°02'1918.5
2014-Jul-26 01:33N 55°26' E 001°32'1918.7
2014-Jul-26 00:33N 55°34' E 002°01'1918.9
2014-Jul-25 23:33N 55°43' E 002°31'1918.8
2014-Jul-25 22:33N 55°51' E 003°01'1918.6
2014-Jul-25 21:32N 55°60' E 003°31'11418.7
2014-Jul-25 15:25N 56°52' E 006°35'3518.8
2014-Jul-25 13:33N 57°08' E 007°32'1918.9
2014-Jul-25 12:33N 57°16' E 008°03'7518.8
2014-Jul-25 08:33N 57°46' E 010°12'1818.2
2014-Jul-25 07:33N 57°49' E 010°45'1918.6
2014-Jul-25 06:33N 57°36' E 011°11'1818.3
2014-Jul-25 05:33N 57°22' E 011°31'1918.5
2014-Jul-25 04:33N 57°04' E 011°43'1918.6
2014-Jul-25 03:33N 56°47' E 011°56'1919.2
2014-Jul-25 02:32N 56°30' E 012°13'1919.5
2014-Jul-25 01:33N 56°12' E 012°27'1717.3
2014-Jul-25 00:33N 55°57' E 012°43'1716.8
2014-Jul-24 23:33N 55°41' E 012°41'1110.9
2014-Jul-24 22:33N 55°30' E 012°42'1413.6
2014-Jul-24 21:33N 55°17' E 012°48'1918.9
2014-Jul-24 20:33N 55°14' E 013°21'1919.4
2014-Jul-24 19:33N 55°14' E 013°55'1817.6
2014-Jul-24 18:33N 55°20' E 014°24'1919.2
2014-Jul-24 17:33N 55°32' E 014°50'1919.2
2014-Jul-24 16:34N 55°41' E 015°19'2019.5
2014-Jul-24 15:33N 55°51' E 015°49'2019.7
2014-Jul-24 14:33N 56°01' E 016°20'2019.7
2014-Jul-24 13:33N 56°11' E 016°50'2219.5
2014-Jul-24 12:26N 56°24' E 017°22'1719.5
2014-Jul-24 11:33N 56°35' E 017°46'2119.5
2014-Jul-24 10:28N 56°47' E 018°17'1919.6
2014-Jul-24 09:30N 57°02' E 018°39'4419.6
2014-Jul-24 07:15N 57°38' E 019°28'1619.4
2014-Jul-24 06:25N 57°51' E 019°45'1719.6
2014-Jul-24 05:33N 58°04' E 020°05'2019.7
2014-Jul-24 04:33N 58°20' E 020°27'2019.6
2014-Jul-24 03:33N 58°36' E 020°49'2019.3
2014-Jul-24 02:32N 58°52' E 021°10'1919.2
2014-Jul-24 01:33N 59°07' E 021°32'2319.0
2014-Jul-24 00:19N 59°22' E 022°08'2018.6
2014-Jul-23 23:14N 59°32' E 022°43'1319.5
2014-Jul-23 22:33N 59°35' E 023°09'1919.5
2014-Jul-23 21:33N 59°41' E 023°45'3819.2
2014-Jul-23 19:33N 59°55' E 024°56'1616.1
2014-Jul-23 18:33N 60°09' E 025°12'4 0.3
2014-Jul-23 05:13N 60°13' E 025°12'0 0.3
2014-Jul-23 04:33N 60°13' E 025°12'1111.2
2014-Jul-23 03:32N 60°01' E 025°16'1818.5
2014-Jul-23 02:33N 59°58' E 025°51'1918.9
2014-Jul-23 01:33N 60°01' E 026°28'1918.4
2014-Jul-23 00:33N 60°00' E 027°06'1918.9
2014-Jul-22 23:33N 60°10' E 027°37'4 0.2
2014-Jul-21 23:30N 60°07' E 027°34'1616.7
2014-Jul-21 22:34N 59°59' E 027°07'1313.1
2014-Jul-21 21:33N 59°59' E 026°40'7 7.1
2014-Jul-21 20:33N 59°58' E 026°27'2 7.1
2014-Jul-21 20:18N 59°57' E 026°23'7 6.9
2014-Jul-21 19:21N 59°55' E 026°11'9 7.0
2014-Jul-21 18:04N 59°52' E 025°53'11 7.0
2014-Jul-21 16:27N 59°50' E 025°31'14 6.1
2014-Jul-21 14:10N 59°50' E 025°04'4 7.0
2014-Jul-21 13:33N 59°54' E 025°02'7 6.6
2014-Jul-21 12:33N 60°00' E 025°05'9 8.6
2014-Jul-21 11:33N 60°08' E 025°12'5 0.6
2014-Jul-21 04:04N 60°13' E 025°11'0 0.0
2014-Jul-21 03:30N 60°13' E 025°11'8 8.5
2014-Jul-21 02:34N 60°05' E 025°10'1616.4
2014-Jul-21 01:33N 59°50' E 024°55'1716.7
2014-Jul-21 00:33N 59°44' E 024°24'1717.5
2014-Jul-20 23:33N 59°39' E 023°51'1717.3
2014-Jul-20 22:33N 59°33' E 023°19'1717.4
2014-Jul-20 21:33N 59°28' E 022°46'1717.2
2014-Jul-20 20:33N 59°18' E 022°18'1717.5
2014-Jul-20 19:33N 59°07' E 021°53'1917.6
2014-Jul-20 18:29N 58°53' E 021°28'1718.2
2014-Jul-20 17:33N 58°39' E 021°08'1818.2
2014-Jul-20 16:33N 58°24' E 020°48'2718.1
2014-Jul-20 15:03N 58°03' E 020°17'3318.3
2014-Jul-20 13:14N 57°36' E 019°38'5018.4
2014-Jul-20 10:31N 56°57' E 018°42'1718.3
2014-Jul-20 09:33N 56°44' E 018°20'1413.8
2014-Jul-20 08:33N 56°35' E 018°01'1615.9
2014-Jul-20 07:34N 56°25' E 017°39'1818.3
2014-Jul-20 06:34N 56°14' E 017°12'1818.3
2014-Jul-20 05:34N 56°03' E 016°46'1818.2
2014-Jul-20 04:34N 55°54' E 016°18'1818.1
2014-Jul-20 03:34N 55°45' E 015°50'1818.0
2014-Jul-20 02:34N 55°37' E 015°22'1818.3
2014-Jul-20 01:34N 55°28' E 014°54'1818.0
2014-Jul-20 00:33N 55°16' E 014°30'1818.2
2014-Jul-19 23:33N 55°02' E 014°09'818.3
2014-Jul-19 23:08N 54°60' E 013°56'1118.1
2014-Jul-19 22:33N 54°56' E 013°39'1818.2
2014-Jul-19 21:34N 54°50' E 013°09'1817.8
2014-Jul-19 20:33N 54°44' E 012°40'1717.1
2014-Jul-19 19:33N 54°32' E 012°18'1615.8
2014-Jul-19 18:33N 54°24' E 011°55'1817.6
2014-Jul-19 17:33N 54°30' E 011°27'1716.8
2014-Jul-19 16:33N 54°35' E 010°59'1717.0
2014-Jul-19 15:34N 54°32' E 010°30'1313.4
2014-Jul-19 14:33N 54°24' E 010°12'3 2.6
2014-Jul-19 13:32N 54°22' E 010°08'26 6.5
2014-Jul-19 09:28N 54°11' E 009°28'8 7.4
2014-Jul-19 08:21N 54°04' E 009°19'7 8.1
2014-Jul-19 07:30N 53°58' E 009°15'6 5.7
2014-Jul-19 06:32N 53°54' E 009°09'2 1.7
2014-Jul-19 05:32N 53°53' E 009°06'1414.1
2014-Jul-19 04:33N 53°52' E 008°43'1716.7
2014-Jul-19 03:33N 53°60' E 008°17'1615.5
2014-Jul-19 02:34N 53°57' E 007°51'1717.2
2014-Jul-19 01:33N 53°53' E 007°22'1616.2
2014-Jul-19 00:32N 53°49' E 006°55'1616.8
2014-Jul-18 23:33N 53°46' E 006°28'1716.5
2014-Jul-18 22:34N 53°41' E 006°02'1616.3
2014-Jul-18 21:34N 53°35' E 005°36'1716.6
2014-Jul-18 20:33N 53°31' E 005°09'1716.6
2014-Jul-18 19:34N 53°24' E 004°44'1717.1
2014-Jul-18 18:34N 53°09' E 004°29'1716.8
2014-Jul-18 17:33N 52°54' E 004°17'1716.5
2014-Jul-18 16:33N 52°39' E 004°03'1616.0
2014-Jul-18 15:32N 52°24' E 003°53'1616.1
2014-Jul-18 14:33N 52°09' E 003°54'1111.4
2014-Jul-18 13:33N 51°59' E 004°04'1111.3
2014-Jul-18 12:33N 51°54' E 004°20'3 0.2
2014-Jul-17 17:14N 51°53' E 004°25'0 0.0
2014-Jul-17 16:33N 51°53' E 004°25'0 0.0
2014-Jul-17 15:33N 51°53' E 004°25'1 1.1
2014-Jul-17 14:33N 51°54' E 004°24'1010.2
2014-Jul-17 13:33N 51°58' E 004°09'1514.7
2014-Jul-17 12:33N 52°01' E 003°46'1919.2
2014-Jul-17 11:34N 52°11' E 003°19'2119.9
2014-Jul-17 10:29N 52°24' E 002°51'2819.9
2014-Jul-17 09:04N 52°40' E 002°13'1020.1
2014-Jul-17 08:34N 52°46' E 001°59'2019.5
2014-Jul-17 07:33N 52°58' E 001°34'1919.0
2014-Jul-17 06:33N 53°13' E 001°15'11882.5
2014-Jul-17 05:07N 54°36' W 001°09'7899.8
2014-Jul-17 04:21N 53°49' E 000°36'1518.9
2014-Jul-17 03:34N 53°60' E 000°19'1918.6
2014-Jul-17 02:34N 54°13' W 000°02'1817.8
2014-Jul-17 01:34N 54°27' W 000°23'1817.6
2014-Jul-17 00:33N 54°37' W 000°47'13 1.8
2014-Jul-16 17:24N 54°36' W 001°09'0 0.0
2014-Jul-16 16:33N 54°36' W 001°09'0 0.0
2014-Jul-16 15:33N 54°36' W 001°09'0 0.0
2014-Jul-16 14:33N 54°36' W 001°09'0 0.0
2014-Jul-16 13:32N 54°36' W 001°09'0 0.0
2014-Jul-16 12:34N 54°36' W 001°09'0 0.0
2014-Jul-16 11:33N 54°36' W 001°09'0 0.0
2014-Jul-16 10:34N 54°36' W 001°09'0 0.0
2014-Jul-16 09:30N 54°36' W 001°09'0 0.0
2014-Jul-16 08:33N 54°36' W 001°09'7 7.3
2014-Jul-16 07:33N 54°42' W 001°03'1313.1
2014-Jul-16 06:33N 54°48' W 000°42'1616.3
2014-Jul-16 05:33N 54°55' W 000°17'1717.0
2014-Jul-16 04:33N 55°02' E 000°10'  
Track history (hours):
 
Tides and Currents Weather Stations Pressure Air Temp Water Temp Dewpoint Dewpoint Depression Visibility Wind Speed Wind Dir Waves Ship Positions

Containerships 6

Last reported at 2014-Jul-26 04:33 UTC. Time now 2014-Jul-26 05:09 UTC.
Position N 55°03' E 000°04'.

Length 155 m; beam 21.8 m; draft 8.9 m.

Type: Ship (hazmat cat A). MMSI: 211315096.

Date/timePositionNaut miles runAvg speedWind from/ knotsBaromVisibWave heightAir tempDewpointWater temp
2014-Jul-26 04:33N 55°03' E 000°04'1818.5
2014-Jul-26 03:33N 55°12' E 000°32'1818.2
2014-Jul-26 02:33N 55°19' E 001°02'1918.5
2014-Jul-26 01:33N 55°26' E 001°32'1918.7
2014-Jul-26 00:33N 55°34' E 002°01'1918.9
2014-Jul-25 23:33N 55°43' E 002°31'1918.8
2014-Jul-25 22:33N 55°51' E 003°01'1918.6
2014-Jul-25 21:32N 55°60' E 003°31'11418.7
2014-Jul-25 15:25N 56°52' E 006°35'3518.8
2014-Jul-25 13:33N 57°08' E 007°32'1918.9
2014-Jul-25 12:33N 57°16' E 008°03'7518.8
2014-Jul-25 08:33N 57°46' E 010°12'1818.2
2014-Jul-25 07:33N 57°49' E 010°45'1918.6
2014-Jul-25 06:33N 57°36' E 011°11'1818.3
2014-Jul-25 05:33N 57°22' E 011°31'1918.5
2014-Jul-25 04:33N 57°04' E 011°43'1918.6
2014-Jul-25 03:33N 56°47' E 011°56'1919.2
2014-Jul-25 02:32N 56°30' E 012°13'1919.5
2014-Jul-25 01:33N 56°12' E 012°27'1717.3
2014-Jul-25 00:33N 55°57' E 012°43'1716.8
2014-Jul-24 23:33N 55°41' E 012°41'1110.9
2014-Jul-24 22:33N 55°30' E 012°42'1413.6
2014-Jul-24 21:33N 55°17' E 012°48'1918.9
2014-Jul-24 20:33N 55°14' E 013°21'1919.4
2014-Jul-24 19:33N 55°14' E 013°55'1817.6
2014-Jul-24 18:33N 55°20' E 014°24'1919.2
2014-Jul-24 17:33N 55°32' E 014°50'1919.2
2014-Jul-24 16:34N 55°41' E 015°19'2019.5
2014-Jul-24 15:33N 55°51' E 015°49'2019.7
2014-Jul-24 14:33N 56°01' E 016°20'2019.7
2014-Jul-24 13:33N 56°11' E 016°50'2219.5
2014-Jul-24 12:26N 56°24' E 017°22'1719.5
2014-Jul-24 11:33N 56°35' E 017°46'2119.5
2014-Jul-24 10:28N 56°47' E 018°17'1919.6
2014-Jul-24 09:30N 57°02' E 018°39'4419.6
2014-Jul-24 07:15N 57°38' E 019°28'1619.4
2014-Jul-24 06:25N 57°51' E 019°45'1719.6
2014-Jul-24 05:33N 58°04' E 020°05'2019.7
2014-Jul-24 04:33N 58°20' E 020°27'2019.6
2014-Jul-24 03:33N 58°36' E 020°49'2019.3
2014-Jul-24 02:32N 58°52' E 021°10'1919.2
2014-Jul-24 01:33N 59°07' E 021°32'2319.0
2014-Jul-24 00:19N 59°22' E 022°08'2018.6
2014-Jul-23 23:14N 59°32' E 022°43'1319.5
2014-Jul-23 22:33N 59°35' E 023°09'1919.5
2014-Jul-23 21:33N 59°41' E 023°45'3819.2
2014-Jul-23 19:33N 59°55' E 024°56'1616.1
2014-Jul-23 18:33N 60°09' E 025°12'4 0.3
2014-Jul-23 05:13N 60°13' E 025°12'0 0.3
2014-Jul-23 04:33N 60°13' E 025°12'1111.2
2014-Jul-23 03:32N 60°01' E 025°16'1818.5
2014-Jul-23 02:33N 59°58' E 025°51'1918.9
2014-Jul-23 01:33N 60°01' E 026°28'1918.4
2014-Jul-23 00:33N 60°00' E 027°06'1918.9
2014-Jul-22 23:33N 60°10' E 027°37'4 0.2
2014-Jul-21 23:30N 60°07' E 027°34'1616.7
2014-Jul-21 22:34N 59°59' E 027°07'1313.1
2014-Jul-21 21:33N 59°59' E 026°40'7 7.1
2014-Jul-21 20:33N 59°58' E 026°27'2 7.1
2014-Jul-21 20:18N 59°57' E 026°23'7 6.9
2014-Jul-21 19:21N 59°55' E 026°11'9 7.0
2014-Jul-21 18:04N 59°52' E 025°53'11 7.0
2014-Jul-21 16:27N 59°50' E 025°31'14 6.1
2014-Jul-21 14:10N 59°50' E 025°04'4 7.0
2014-Jul-21 13:33N 59°54' E 025°02'7 6.6
2014-Jul-21 12:33N 60°00' E 025°05'9 8.6
2014-Jul-21 11:33N 60°08' E 025°12'5 0.6
2014-Jul-21 04:04N 60°13' E 025°11'0 0.0
2014-Jul-21 03:30N 60°13' E 025°11'8 8.5
2014-Jul-21 02:34N 60°05' E 025°10'1616.4
2014-Jul-21 01:33N 59°50' E 024°55'1716.7
2014-Jul-21 00:33N 59°44' E 024°24'1717.5
2014-Jul-20 23:33N 59°39' E 023°51'1717.3
2014-Jul-20 22:33N 59°33' E 023°19'1717.4
2014-Jul-20 21:33N 59°28' E 022°46'1717.2
2014-Jul-20 20:33N 59°18' E 022°18'1717.5
2014-Jul-20 19:33N 59°07' E 021°53'1917.6
2014-Jul-20 18:29N 58°53' E 021°28'1718.2
2014-Jul-20 17:33N 58°39' E 021°08'1818.2
2014-Jul-20 16:33N 58°24' E 020°48'2718.1
2014-Jul-20 15:03N 58°03' E 020°17'3318.3
2014-Jul-20 13:14N 57°36' E 019°38'5018.4
2014-Jul-20 10:31N 56°57' E 018°42'1718.3
2014-Jul-20 09:33N 56°44' E 018°20'1413.8
2014-Jul-20 08:33N 56°35' E 018°01'1615.9
2014-Jul-20 07:34N 56°25' E 017°39'1818.3
2014-Jul-20 06:34N 56°14' E 017°12'1818.3
2014-Jul-20 05:34N 56°03' E 016°46'1818.2
2014-Jul-20 04:34N 55°54' E 016°18'1818.1
2014-Jul-20 03:34N 55°45' E 015°50'1818.0
2014-Jul-20 02:34N 55°37' E 015°22'1818.3
2014-Jul-20 01:34N 55°28' E 014°54'1818.0
2014-Jul-20 00:33N 55°16' E 014°30'1818.2
2014-Jul-19 23:33N 55°02' E 014°09'818.3
2014-Jul-19 23:08N 54°60' E 013°56'1118.1
2014-Jul-19 22:33N 54°56' E 013°39'1818.2
2014-Jul-19 21:34N 54°50' E 013°09'1817.8
2014-Jul-19 20:33N 54°44' E 012°40'1717.1
2014-Jul-19 19:33N 54°32' E 012°18'1615.8
2014-Jul-19 18:33N 54°24' E 011°55'1817.6
2014-Jul-19 17:33N 54°30' E 011°27'1716.8
2014-Jul-19 16:33N 54°35' E 010°59'1717.0
2014-Jul-19 15:34N 54°32' E 010°30'1313.4
2014-Jul-19 14:33N 54°24' E 010°12'3 2.6
2014-Jul-19 13:32N 54°22' E 010°08'26 6.5
2014-Jul-19 09:28N 54°11' E 009°28'8 7.4
2014-Jul-19 08:21N 54°04' E 009°19'7 8.1
2014-Jul-19 07:30N 53°58' E 009°15'6 5.7
2014-Jul-19 06:32N 53°54' E 009°09'2 1.7
2014-Jul-19 05:32N 53°53' E 009°06'1414.1
2014-Jul-19 04:33N 53°52' E 008°43'1716.7
2014-Jul-19 03:33N 53°60' E 008°17'1615.5
2014-Jul-19 02:34N 53°57' E 007°51'1717.2
2014-Jul-19 01:33N 53°53' E 007°22'1616.2
2014-Jul-19 00:32N 53°49' E 006°55'1616.8
2014-Jul-18 23:33N 53°46' E 006°28'1716.5
2014-Jul-18 22:34N 53°41' E 006°02'1616.3
2014-Jul-18 21:34N 53°35' E 005°36'1716.6
2014-Jul-18 20:33N 53°31' E 005°09'1716.6
2014-Jul-18 19:34N 53°24' E 004°44'1717.1
2014-Jul-18 18:34N 53°09' E 004°29'1716.8
2014-Jul-18 17:33N 52°54' E 004°17'1716.5
2014-Jul-18 16:33N 52°39' E 004°03'1616.0
2014-Jul-18 15:32N 52°24' E 003°53'1616.1
2014-Jul-18 14:33N 52°09' E 003°54'1111.4
2014-Jul-18 13:33N 51°59' E 004°04'1111.3
2014-Jul-18 12:33N 51°54' E 004°20'3 0.2
2014-Jul-17 17:14N 51°53' E 004°25'0 0.0
2014-Jul-17 16:33N 51°53' E 004°25'0 0.0
2014-Jul-17 15:33N 51°53' E 004°25'1 1.1
2014-Jul-17 14:33N 51°54' E 004°24'1010.2
2014-Jul-17 13:33N 51°58' E 004°09'1514.7
2014-Jul-17 12:33N 52°01' E 003°46'1919.2
2014-Jul-17 11:34N 52°11' E 003°19'2119.9
2014-Jul-17 10:29N 52°24' E 002°51'2819.9
2014-Jul-17 09:04N 52°40' E 002°13'1020.1
2014-Jul-17 08:34N 52°46' E 001°59'2019.5
2014-Jul-17 07:33N 52°58' E 001°34'1919.0
2014-Jul-17 06:33N 53°13' E 001°15'11882.5
2014-Jul-17 05:07N 54°36' W 001°09'7899.8
2014-Jul-17 04:21N 53°49' E 000°36'1518.9
2014-Jul-17 03:34N 53°60' E 000°19'1918.6
2014-Jul-17 02:34N 54°13' W 000°02'1817.8
2014-Jul-17 01:34N 54°27' W 000°23'1817.6
2014-Jul-17 00:33N 54°37' W 000°47'13 1.8
2014-Jul-16 17:24N 54°36' W 001°09'0 0.0
2014-Jul-16 16:33N 54°36' W 001°09'0 0.0
2014-Jul-16 15:33N 54°36' W 001°09'0 0.0
2014-Jul-16 14:33N 54°36' W 001°09'0 0.0
2014-Jul-16 13:32N 54°36' W 001°09'0 0.0
2014-Jul-16 12:34N 54°36' W 001°09'0 0.0
2014-Jul-16 11:33N 54°36' W 001°09'0 0.0
2014-Jul-16 10:34N 54°36' W 001°09'0 0.0
2014-Jul-16 09:30N 54°36' W 001°09'0 0.0
2014-Jul-16 08:33N 54°36' W 001°09'7 7.3
2014-Jul-16 07:33N 54°42' W 001°03'1313.1
2014-Jul-16 06:33N 54°48' W 000°42'1616.3
2014-Jul-16 05:33N 54°55' W 000°17'1717.0
2014-Jul-16 04:33N 55°02' E 000°10'  

Dump ship's entire track history